createdAt,value
2019-04-05T00:00:35.524Z,18.67
2019-04-05T00:03:05.152Z,17.70
2019-04-05T00:05:35.868Z,21.00
2019-04-05T00:08:05.884Z,18.93
2019-04-05T00:10:35.488Z,18.53
2019-04-05T00:13:05.078Z,19.07
2019-04-05T00:15:34.359Z,17.03
2019-04-05T00:18:03.939Z,17.77
2019-04-05T00:20:33.222Z,19.80
2019-04-05T00:23:03.567Z,17.60
2019-04-05T00:25:33.172Z,18.20
2019-04-05T00:28:03.993Z,17.67
2019-04-05T00:30:33.673Z,18.33
2019-04-05T00:33:02.923Z,18.47
2019-04-05T00:35:35.042Z,18.27
2019-04-05T00:38:04.818Z,18.63
2019-04-05T00:40:34.050Z,17.67
2019-04-05T00:43:04.762Z,17.60
2019-04-05T00:45:34.529Z,18.20
2019-04-05T00:48:05.575Z,17.97
2019-04-05T00:50:34.832Z,18.50
2019-04-05T00:53:04.831Z,19.47
2019-04-05T00:55:34.081Z,18.80
2019-04-05T00:58:03.320Z,19.50
2019-04-05T01:00:32.691Z,19.42
2019-04-05T01:03:01.988Z,19.50
2019-04-05T01:05:31.537Z,20.27
2019-04-05T01:08:00.900Z,19.03
2019-04-05T01:10:30.163Z,17.70
2019-04-05T01:13:00.724Z,19.17
2019-04-05T01:15:40.186Z,19.30
2019-04-05T01:18:00.996Z,17.67
2019-04-05T01:20:34.574Z,18.07
2019-04-05T01:23:04.534Z,17.23
2019-04-05T01:25:37.576Z,16.73
2019-04-05T01:28:06.847Z,16.40
2019-04-05T01:30:36.598Z,16.17
2019-04-05T01:33:07.638Z,18.50
2019-04-05T01:35:36.889Z,17.50
2019-04-05T01:38:06.178Z,15.60
2019-04-05T01:40:37.090Z,14.80
2019-04-05T01:43:06.896Z,14.20
2019-04-05T01:45:36.492Z,15.67
2019-04-05T01:48:07.131Z,15.97
2019-04-05T01:50:36.373Z,15.33
2019-04-05T01:53:06.644Z,15.60
2019-04-05T01:55:36.193Z,17.77
2019-04-05T01:58:05.453Z,15.03
2019-04-05T02:00:37.428Z,15.70
2019-04-05T02:03:07.696Z,16.10
2019-04-05T02:05:38.439Z,16.37
2019-04-05T02:08:07.737Z,17.07
2019-04-05T02:10:37.495Z,16.47
2019-04-05T02:13:08.888Z,18.03
2019-04-05T02:15:38.741Z,18.33
2019-04-05T02:18:08.375Z,19.77
2019-04-05T02:20:38.324Z,17.50
2019-04-05T02:23:07.919Z,19.10
2019-04-05T02:25:37.580Z,17.27
2019-04-05T02:28:06.836Z,17.50
2019-04-05T02:30:36.520Z,16.77
2019-04-05T02:33:05.990Z,15.60
2019-04-05T02:35:38.955Z,16.20
2019-04-05T02:38:06.420Z,14.63
2019-04-05T02:40:36.311Z,16.97
2019-04-05T02:43:05.916Z,16.33
2019-04-05T02:45:36.703Z,15.03
2019-04-05T02:48:08.699Z,15.00
2019-04-05T02:50:41.723Z,15.03
2019-04-05T02:53:12.503Z,15.07
2019-04-05T02:55:42.255Z,17.73
2019-04-05T02:58:13.896Z,15.40
2019-04-05T03:00:43.793Z,15.03
2019-04-05T03:03:14.052Z,16.57
2019-04-05T03:05:43.316Z,15.27
2019-04-05T03:08:13.562Z,16.67
2019-04-05T03:11:07.041Z,15.97
2019-04-05T03:13:51.725Z,17.40
2019-04-05T03:16:39.125Z,17.20
2019-04-05T03:18:59.223Z,17.50
2019-04-05T03:21:30.650Z,19.13
2019-04-05T03:24:03.375Z,22.00
2019-04-05T03:26:35.146Z,20.43
2019-04-05T03:29:07.508Z,21.77
2019-04-05T03:31:38.633Z,20.90
2019-04-05T03:34:09.245Z,22.23
2019-04-05T03:36:39.486Z,23.60
2019-04-05T03:39:09.163Z,21.73
2019-04-05T03:41:39.892Z,23.40
2019-04-05T03:44:09.596Z,19.23
2019-04-05T03:46:54.719Z,21.77
2019-04-05T03:49:10.495Z,19.40
2019-04-05T03:51:39.971Z,18.70
2019-04-05T03:54:09.213Z,17.43
2019-04-05T03:56:38.724Z,17.80
2019-04-05T03:59:08.125Z,16.47
2019-04-05T04:01:37.373Z,17.57
2019-04-05T04:04:06.705Z,19.10
2019-04-05T04:06:36.717Z,18.60
2019-04-05T04:09:07.334Z,17.93
2019-04-05T04:11:37.374Z,17.57
2019-04-05T04:14:07.103Z,18.30
2019-04-05T04:16:36.797Z,17.40
2019-04-05T04:19:07.521Z,18.33
2019-04-05T04:22:03.705Z,18.17
2019-04-05T04:24:33.447Z,17.33
2019-04-05T04:27:03.080Z,17.43
2019-04-05T04:29:32.681Z,17.27
2019-04-05T04:32:02.660Z,17.73
2019-04-05T04:34:33.730Z,18.87
2019-04-05T04:37:03.364Z,19.30
2019-04-05T04:39:32.967Z,18.63
2019-04-05T04:42:02.919Z,17.50
2019-04-05T04:44:33.567Z,20.20
2019-04-05T04:47:03.150Z,18.00
2019-04-05T04:49:32.500Z,17.07
2019-04-05T04:52:03.074Z,17.70
2019-04-05T04:54:32.761Z,18.80
2019-04-05T04:57:02.043Z,18.60
2019-04-05T04:59:32.715Z,17.07
2019-04-05T05:02:02.088Z,18.27
2019-04-05T05:04:31.576Z,16.60
2019-04-05T05:07:02.668Z,21.53
2019-04-05T05:09:32.271Z,18.90
2019-04-05T05:12:01.638Z,20.20
2019-04-05T05:14:32.605Z,20.17
2019-04-05T05:17:02.396Z,20.40
2019-04-05T05:19:31.969Z,21.00
2019-04-05T05:22:01.540Z,21.40
2019-04-05T05:24:31.013Z,19.30
2019-04-05T05:27:01.255Z,19.97
2019-04-05T05:29:31.173Z,17.00
2019-04-05T05:32:00.641Z,19.67
2019-04-05T05:34:29.884Z,20.07
2019-04-05T05:36:59.149Z,18.60
2019-04-05T05:39:30.602Z,18.93
2019-04-05T05:41:59.871Z,22.97
2019-04-05T05:44:29.516Z,20.97
2019-04-05T05:46:58.841Z,19.70
2019-04-05T05:49:28.377Z,23.07
2019-04-05T05:51:58.143Z,21.97
2019-04-05T05:54:27.713Z,21.17
2019-04-05T05:56:57.283Z,22.20
2019-04-05T05:59:30.323Z,23.87
2019-04-05T06:01:58.775Z,24.50
2019-04-05T06:04:28.061Z,23.83
2019-04-05T06:06:58.408Z,20.67
2019-04-05T06:09:31.117Z,21.67
2019-04-05T06:12:00.407Z,21.20
2019-04-05T06:14:31.233Z,20.20
2019-04-05T06:17:00.450Z,19.80
2019-04-05T06:19:29.713Z,17.40
2019-04-05T06:21:59.379Z,16.50
2019-04-05T06:24:31.697Z,18.40
2019-04-05T06:27:01.941Z,17.03
2019-04-05T06:29:31.208Z,17.90
2019-04-05T06:32:00.492Z,18.00
2019-04-05T06:34:30.072Z,19.37
2019-04-05T06:36:59.332Z,15.70
2019-04-05T06:39:28.922Z,16.53
2019-04-05T06:41:58.209Z,18.07
2019-04-05T06:44:28.140Z,18.70
2019-04-05T06:46:57.495Z,19.10
2019-04-05T06:49:26.779Z,16.73
2019-04-05T06:51:56.355Z,18.77
2019-04-05T06:54:25.621Z,17.67
2019-04-05T06:56:54.894Z,18.47
2019-04-05T06:59:24.446Z,17.20
2019-04-05T07:01:55.504Z,17.50
2019-04-05T07:04:25.162Z,18.20
2019-04-05T07:06:57.131Z,20.00
2019-04-05T07:09:26.712Z,20.13
2019-04-05T07:11:57.206Z,19.30
2019-04-05T07:14:26.715Z,20.50
2019-04-05T07:16:55.971Z,21.40
2019-04-05T07:19:25.223Z,21.57
2019-04-05T07:21:54.484Z,20.53
2019-04-05T07:24:25.878Z,18.43
2019-04-05T07:26:55.159Z,20.37
2019-04-05T07:29:24.410Z,19.77
2019-04-05T07:31:53.696Z,18.50
2019-04-05T07:34:22.964Z,19.70
2019-04-05T07:36:52.227Z,18.63
2019-04-05T07:39:21.482Z,20.10
2019-04-05T07:41:51.351Z,21.43
2019-04-05T07:44:20.646Z,16.70
2019-04-05T07:46:49.920Z,15.60
2019-04-05T07:49:19.151Z,17.73
2019-04-05T07:51:49.233Z,17.50
2019-04-05T07:54:18.823Z,13.33
2019-04-05T07:56:48.470Z,16.43
2019-04-05T07:59:20.801Z,15.57
2019-04-05T08:01:50.560Z,16.17
2019-04-05T08:04:19.875Z,12.80
2019-04-05T08:06:50.191Z,16.70
2019-04-05T08:09:19.950Z,14.13
2019-04-05T08:11:50.406Z,15.40
2019-04-05T08:14:21.137Z,15.20
2019-04-05T08:16:51.079Z,17.33
2019-04-05T08:19:20.535Z,15.23
2019-04-05T08:21:51.076Z,15.05
2019-04-05T08:24:20.358Z,14.67
2019-04-05T08:26:49.649Z,14.23
2019-04-05T08:29:19.289Z,14.43
2019-04-05T08:31:50.367Z,14.37
2019-04-05T08:34:19.626Z,12.60
2019-04-05T08:36:48.920Z,13.30
2019-04-05T08:39:18.177Z,13.70
2019-04-05T08:41:47.457Z,14.17
2019-04-05T08:44:16.693Z,13.40
2019-04-05T08:46:46.343Z,14.00
2019-04-05T08:49:17.192Z,12.23
2019-04-05T08:51:46.797Z,12.73
2019-04-05T08:54:16.075Z,10.43
2019-04-05T08:56:47.005Z,12.23
2019-04-05T08:59:16.278Z,10.87
2019-04-05T09:01:45.595Z,11.93
2019-04-05T09:04:14.818Z,13.20
2019-04-05T09:06:46.103Z,12.73
2019-04-05T09:09:15.688Z,11.90
2019-04-05T09:11:46.746Z,13.03
2019-04-05T09:14:16.538Z,11.67
2019-04-05T09:16:46.163Z,11.43
2019-04-05T09:19:23.494Z,10.33
2019-04-05T09:21:46.445Z,10.03
2019-04-05T09:24:15.697Z,12.30
2019-04-05T09:26:44.966Z,8.83
2019-04-05T09:29:14.208Z,7.93
2019-04-05T09:31:43.500Z,9.40
2019-04-05T09:34:12.757Z,10.90
2019-04-05T09:36:43.487Z,9.87
2019-04-05T09:39:15.884Z,12.80
2019-04-05T09:41:45.180Z,10.10
2019-04-05T09:44:15.210Z,11.93
2019-04-05T09:46:47.119Z,11.60
2019-04-05T09:49:15.856Z,12.57
2019-04-05T09:51:45.130Z,11.30
2019-04-05T09:54:14.734Z,12.30
2019-04-05T09:56:44.073Z,9.90
2019-04-05T09:59:15.154Z,8.73
2019-04-05T10:01:44.393Z,7.40
2019-04-05T10:04:13.872Z,9.07
2019-04-05T10:06:43.449Z,9.00
2019-04-05T10:09:13.483Z,8.40
2019-04-05T10:11:44.744Z,8.58
2019-04-05T10:14:14.510Z,7.70
2019-04-05T10:16:44.234Z,7.40
2019-04-05T10:19:13.839Z,7.03
2019-04-05T10:21:43.448Z,7.33
2019-04-05T10:24:12.732Z,6.60
2019-04-05T10:26:41.992Z,5.30
2019-04-05T10:29:11.277Z,6.37
2019-04-05T10:31:40.958Z,6.03
2019-04-05T10:34:10.574Z,6.60
2019-04-05T10:36:39.879Z,7.00
2019-04-05T10:39:10.474Z,6.83
2019-04-05T10:41:40.728Z,6.20
2019-04-05T10:44:14.265Z,6.70
2019-04-05T10:46:43.993Z,6.63
2019-04-05T10:49:15.157Z,7.17
2019-04-05T10:51:44.585Z,7.23
2019-04-05T10:54:13.986Z,7.80
2019-04-05T10:56:43.583Z,6.30
2019-04-05T10:59:13.261Z,9.70
2019-04-05T11:01:42.604Z,7.03
2019-04-05T11:04:12.241Z,8.37
2019-04-05T11:06:42.768Z,8.40
2019-04-05T11:09:12.010Z,7.40
2019-04-05T11:11:41.258Z,9.47
2019-04-05T11:14:14.045Z,8.13
2019-04-05T11:16:41.576Z,10.33
2019-04-05T11:19:11.116Z,8.23
2019-04-05T11:21:40.400Z,9.07
2019-04-05T11:24:10.192Z,8.00
2019-04-05T11:26:39.805Z,8.10
2019-04-05T11:29:09.345Z,8.40
2019-04-05T11:31:39.013Z,7.90
2019-04-05T11:34:08.562Z,6.80
2019-04-05T11:36:39.708Z,6.90
2019-04-05T11:39:09.262Z,7.07
2019-04-05T11:41:38.848Z,6.50
2019-04-05T11:44:09.119Z,6.43
2019-04-05T11:46:39.835Z,8.07
2019-04-05T11:49:09.391Z,7.13
2019-04-05T11:51:38.672Z,6.77
2019-04-05T11:54:08.079Z,6.13
2019-04-05T11:56:37.602Z,6.30
2019-04-05T11:59:13.374Z,6.43
2019-04-05T12:01:52.292Z,6.80
2019-04-05T12:04:21.671Z,7.10
2019-04-05T12:06:52.148Z,6.40
2019-04-05T12:09:23.015Z,7.43
2019-04-05T12:11:52.706Z,9.00
2019-04-05T12:14:30.194Z,8.20
2019-04-05T12:16:54.850Z,8.67
2019-04-05T12:19:24.109Z,8.47
2019-04-05T12:21:55.501Z,8.47
2019-04-05T12:24:24.830Z,9.30
2019-04-05T12:26:54.302Z,8.57
2019-04-05T12:29:23.694Z,8.87
2019-04-05T12:31:54.415Z,9.03
2019-04-05T12:34:24.058Z,8.07
2019-04-05T12:36:54.889Z,9.17
2019-04-05T12:39:24.247Z,9.80
2019-04-05T12:41:53.643Z,7.87
2019-04-05T12:44:23.318Z,7.97
2019-04-05T12:46:53.341Z,8.20
2019-04-05T12:49:22.576Z,9.43
2019-04-05T12:51:53.384Z,10.20
2019-04-05T12:54:22.722Z,10.43
2019-04-05T12:56:54.153Z,8.90
2019-04-05T12:59:25.540Z,10.90
2019-04-05T13:01:55.185Z,8.37
2019-04-05T13:04:24.462Z,9.27
2019-04-05T13:06:55.528Z,8.90
2019-04-05T13:09:26.899Z,8.60
2019-04-05T13:11:57.393Z,7.93
2019-04-05T13:14:27.053Z,8.73
2019-04-05T13:17:02.589Z,8.50
2019-04-05T13:19:31.323Z,9.70
2019-04-05T13:22:02.812Z,8.73
2019-04-05T13:24:32.085Z,9.70
2019-04-05T13:27:01.993Z,10.20
2019-04-05T13:29:33.111Z,9.87
2019-04-05T13:32:02.724Z,10.27
2019-04-05T13:34:32.022Z,9.57
2019-04-05T13:37:01.878Z,8.87
2019-04-05T13:39:31.334Z,12.40
2019-04-05T13:42:01.774Z,10.70
2019-04-05T13:44:31.972Z,8.83
2019-04-05T13:47:01.740Z,16.60
2019-04-05T13:49:31.006Z,11.43
2019-04-05T13:52:00.591Z,14.30
2019-04-05T13:54:30.386Z,16.80
2019-04-05T13:56:59.654Z,61.10
2019-04-05T13:59:29.301Z,14.50
2019-04-05T14:02:05.926Z,48.90
2019-04-05T14:04:30.071Z,10.47
2019-04-05T14:06:59.852Z,12.87
2019-04-05T14:09:31.562Z,10.77
2019-04-05T14:12:01.540Z,10.13
2019-04-05T14:14:30.817Z,18.30
2019-04-05T14:17:00.429Z,11.80
2019-04-05T14:19:30.790Z,10.43
2019-04-05T14:22:08.360Z,10.90
2019-04-05T14:24:31.366Z,10.23
2019-04-05T14:27:02.915Z,11.23
2019-04-05T14:29:33.357Z,10.57
2019-04-05T14:33:31.982Z,10.87
2019-04-05T14:36:01.247Z,10.30
2019-04-05T14:38:31.418Z,12.03
2019-04-05T14:41:00.974Z,11.27
2019-04-05T14:43:30.253Z,10.50
2019-04-05T14:46:02.777Z,12.73
2019-04-05T14:48:33.247Z,14.30
2019-04-05T14:51:02.626Z,12.70
2019-04-05T14:53:33.004Z,10.90
2019-04-05T14:56:03.337Z,10.40
2019-04-05T14:58:34.230Z,12.10
2019-04-05T15:01:04.050Z,10.60
2019-04-05T15:03:33.327Z,11.53
2019-04-05T15:06:02.603Z,11.47
2019-04-05T15:08:33.894Z,11.10
2019-04-05T15:11:03.508Z,12.03
2019-04-05T15:13:32.767Z,10.63
2019-04-05T15:16:02.421Z,11.80
2019-04-05T15:18:31.757Z,11.73
2019-04-05T15:21:01.337Z,12.80
2019-04-05T15:23:30.935Z,12.30
2019-04-05T15:26:03.003Z,12.07
2019-04-05T15:28:32.612Z,11.70
2019-04-05T15:31:01.908Z,16.00
2019-04-05T15:33:31.147Z,16.60
2019-04-05T15:36:03.107Z,15.23
2019-04-05T15:38:32.474Z,14.53
2019-04-05T15:41:02.597Z,15.87
2019-04-05T15:43:31.968Z,12.67
2019-04-05T15:46:01.311Z,14.97
2019-04-05T15:48:30.581Z,15.53
2019-04-05T15:51:00.645Z,14.87
2019-04-05T15:53:32.225Z,16.00
2019-04-05T15:56:04.351Z,15.23
2019-04-05T15:58:34.114Z,15.10
2019-04-05T16:01:07.628Z,15.67
2019-04-05T16:03:37.101Z,16.40
2019-04-05T16:06:07.435Z,15.40
2019-04-05T16:08:36.698Z,16.20
2019-04-05T16:11:05.990Z,14.83
2019-04-05T16:13:35.300Z,16.97
2019-04-05T16:16:04.782Z,13.90
2019-04-05T16:18:34.410Z,15.50
2019-04-05T16:21:03.650Z,13.62
2019-04-05T16:23:33.236Z,14.30
2019-04-05T16:26:02.535Z,15.00
2019-04-05T16:28:31.791Z,12.93
2019-04-05T16:31:01.057Z,14.73
2019-04-05T16:33:30.714Z,13.53
2019-04-05T16:36:00.355Z,13.30
2019-04-05T16:38:30.057Z,13.63
2019-04-05T16:40:59.286Z,14.60
2019-04-05T16:43:31.434Z,14.33
2019-04-05T16:46:00.970Z,13.10
2019-04-05T16:48:32.381Z,17.27
2019-04-05T16:51:03.320Z,13.67
2019-04-05T16:53:32.791Z,12.73
2019-04-05T16:56:02.357Z,13.60
2019-04-05T16:58:31.707Z,11.13
2019-04-05T17:01:01.756Z,13.83
2019-04-05T17:03:31.031Z,13.27
2019-04-05T17:06:01.566Z,12.17
2019-04-05T17:08:33.860Z,15.77
2019-04-05T17:11:03.155Z,15.90
2019-04-05T17:13:33.191Z,16.37
2019-04-05T17:16:03.107Z,15.50
2019-04-05T17:18:32.829Z,13.77
2019-04-05T17:21:03.814Z,14.67
2019-04-05T17:23:33.416Z,13.73
2019-04-05T17:26:04.082Z,13.20
2019-04-05T17:28:35.335Z,15.43
2019-04-05T17:31:04.955Z,15.40
2019-04-05T17:33:34.589Z,13.90
2019-04-05T17:36:04.009Z,13.83
2019-04-05T17:38:34.289Z,16.00
2019-04-05T17:41:04.179Z,14.77
2019-04-05T17:43:34.447Z,13.37
2019-04-05T17:46:03.817Z,15.23
2019-04-05T17:48:33.181Z,15.87
2019-04-05T17:51:02.943Z,15.53
2019-04-05T17:53:32.544Z,13.60
2019-04-05T17:56:02.278Z,15.47
2019-04-05T17:58:33.371Z,14.73
2019-04-05T18:01:03.104Z,15.47
2019-04-05T18:03:32.837Z,15.80
2019-04-05T18:06:02.471Z,14.60
2019-04-05T18:08:31.704Z,15.93
2019-04-05T18:11:01.356Z,14.63
2019-04-05T18:13:30.692Z,16.70
2019-04-05T18:16:00.139Z,16.67
2019-04-05T18:18:30.024Z,16.60
2019-04-05T18:21:01.047Z,15.73
2019-04-05T18:23:30.399Z,14.53
2019-04-05T18:25:59.702Z,16.30
2019-04-05T18:28:29.028Z,18.90
2019-04-05T18:30:58.303Z,17.67
2019-04-05T18:33:27.651Z,19.33
2019-04-05T18:35:57.098Z,17.77
2019-04-05T18:38:28.341Z,18.97
2019-04-05T18:40:58.024Z,19.60
2019-04-05T18:43:28.912Z,20.43
2019-04-05T18:45:58.327Z,20.70
2019-04-05T18:48:27.944Z,23.10
2019-04-05T18:50:57.873Z,20.87
2019-04-05T18:53:37.000Z,24.40
2019-04-05T18:56:00.967Z,21.10
2019-04-05T18:58:30.233Z,26.77
2019-04-05T19:00:59.876Z,22.33
2019-04-05T19:03:29.192Z,24.27
2019-04-05T19:05:58.618Z,24.20
2019-04-05T19:08:39.015Z,22.00
2019-04-05T19:10:59.756Z,24.10
2019-04-05T19:13:29.242Z,23.57
2019-04-05T19:15:59.853Z,27.20
2019-04-05T19:18:29.587Z,25.40
2019-04-05T19:21:02.364Z,24.67
2019-04-05T19:23:31.939Z,24.50
2019-04-05T19:26:01.192Z,24.57
2019-04-05T19:28:31.698Z,25.93
2019-04-05T19:48:45.268Z,25.40
2019-04-05T19:51:14.887Z,24.70
2019-04-05T19:53:44.174Z,26.53
2019-04-05T19:56:14.204Z,23.00
2019-04-05T19:58:43.825Z,24.27
2019-04-05T20:01:13.090Z,26.27
2019-04-05T20:03:42.368Z,30.20
2019-04-05T20:06:11.651Z,24.93
2019-04-05T20:08:40.938Z,27.60
2019-04-05T20:11:10.532Z,29.10
2019-04-05T20:13:39.762Z,30.20
2019-04-05T20:16:09.424Z,32.13
2019-04-05T20:18:40.389Z,31.47
2019-04-05T20:21:11.225Z,28.67
2019-04-05T20:23:47.413Z,28.30
2019-04-05T20:26:13.077Z,26.37
2019-04-05T20:28:42.388Z,28.60
2019-04-05T20:31:12.015Z,27.07
2019-04-05T20:33:41.298Z,25.50
2019-04-05T20:36:11.679Z,24.40
2019-04-05T20:38:42.576Z,26.40
2019-04-05T20:41:11.847Z,24.57
2019-04-05T20:43:42.232Z,26.37
2019-04-05T20:46:11.496Z,27.33
2019-04-05T20:48:41.108Z,25.53
2019-04-05T20:51:10.416Z,25.37
2019-04-05T20:53:43.285Z,22.90
2019-04-05T20:56:12.707Z,22.87
2019-04-05T20:58:41.997Z,24.07
2019-04-05T21:01:11.347Z,24.00
2019-04-05T21:03:41.425Z,20.40
2019-04-05T21:06:10.723Z,32.20
2019-04-05T21:08:41.304Z,24.43
2019-04-05T21:11:11.003Z,28.97
2019-04-05T21:13:40.334Z,26.63
2019-04-05T21:16:09.568Z,30.88
2019-04-05T21:18:38.861Z,24.60
2019-04-05T21:21:09.414Z,26.37
2019-04-05T21:23:38.724Z,24.93
2019-04-05T21:26:08.356Z,26.13
2019-04-05T21:28:37.608Z,26.87
2019-04-05T21:31:06.877Z,24.40
2019-04-05T21:33:36.137Z,23.23
2019-04-05T21:36:05.818Z,23.03
2019-04-05T21:38:36.532Z,21.00
2019-04-05T21:41:06.087Z,25.33
2019-04-05T21:43:35.781Z,23.40
2019-04-05T21:46:05.039Z,19.90
2019-04-05T21:48:34.310Z,20.37
2019-04-05T21:51:03.562Z,24.13
2019-04-05T21:53:34.214Z,22.27
2019-04-05T21:56:04.977Z,24.40
2019-04-05T21:58:34.215Z,20.83
2019-04-05T22:01:05.815Z,22.27
2019-04-05T22:03:36.538Z,19.90
2019-04-05T22:06:07.760Z,26.20
2019-04-05T22:08:39.142Z,22.90
2019-04-05T22:11:08.397Z,20.93
2019-04-05T22:13:39.794Z,23.67
2019-04-05T22:16:09.159Z,21.90
2019-04-05T22:18:40.268Z,22.23
2019-04-05T22:21:10.252Z,22.10
2019-04-05T22:23:39.477Z,24.80
2019-04-05T22:26:09.478Z,23.37
2019-04-05T22:28:38.744Z,22.53
2019-04-05T22:31:08.005Z,23.80
2019-04-05T22:33:37.690Z,24.47
2019-04-05T22:36:07.964Z,27.30
2019-04-05T22:38:38.504Z,22.27
2019-04-05T22:41:07.838Z,24.37
2019-04-05T22:43:41.038Z,24.27
2019-04-05T22:46:10.285Z,25.90
2019-04-05T22:48:39.545Z,24.00
2019-04-05T22:51:09.146Z,27.93
2019-04-05T22:53:38.668Z,25.13
2019-04-05T22:56:07.968Z,27.20
2019-04-05T22:58:37.215Z,26.53
2019-04-05T23:01:06.764Z,22.60
2019-04-05T23:03:36.774Z,24.97
2019-04-05T23:06:06.055Z,25.93
2019-04-05T23:08:35.316Z,20.87
2019-04-05T23:11:05.212Z,24.70
2019-04-05T23:13:34.945Z,24.87
2019-04-05T23:16:05.670Z,24.20
2019-04-05T23:18:36.744Z,26.40
2019-04-05T23:21:06.970Z,23.77
2019-04-05T23:23:38.024Z,25.93
2019-04-05T23:26:07.661Z,21.60
2019-04-05T23:28:37.301Z,23.80
2019-04-05T23:31:06.684Z,25.27
2019-04-05T23:33:36.493Z,25.70
2019-04-05T23:36:05.849Z,25.47
2019-04-05T23:38:36.108Z,26.70
2019-04-05T23:41:06.877Z,26.07
2019-04-05T23:43:36.458Z,24.43
2019-04-05T23:46:06.018Z,21.50
2019-04-05T23:48:38.007Z,24.70
2019-04-05T23:51:07.290Z,25.60
2019-04-05T23:53:37.657Z,25.93
2019-04-05T23:56:06.942Z,26.40
2019-04-05T23:58:37.897Z,28.10
